Bay Shore, New York
Current Conditions -  °F | °C
As of 10:53 PM on Monday 22 Dec 2014 (Local Time) from KFRG Reporting Station
Light Rain Light Rain  
Wind Chill:   Ceiling: 800
Heat Index:   Visibility: 5mi
Dew Point:   Wind: 8mph
Humidity: 93%   Direction: 90°E
Pressure: 30.21"   Gusts: NA
Location:  40.72°N, 73.25°W
Report Text: KFRG 230353Z 09007KT 5SM -RA BR BKN008 OVC017 08/07 A3021 RMK AO2 RAB16 SLP229 P0001 T00780067
Loading
Personal Weather Stations






























Interactive Weather Map New forecast layout! Learn more

10-Day Weather Forecast

Advertisements
Track Severe Weather on mobile